createdAt,value
2019-02-06T00:01:23.173Z,96820.00
2019-02-06T00:03:55.097Z,96818.00
2019-02-06T00:06:27.022Z,96817.00
2019-02-06T00:09:09.019Z,96814.00
2019-02-06T00:11:40.944Z,96815.00
2019-02-06T00:14:12.915Z,96808.00
2019-02-06T00:16:45.038Z,96813.00
2019-02-06T00:19:21.546Z,96803.00
2019-02-06T00:21:53.419Z,96804.00
2019-02-06T00:24:25.373Z,96790.00
2019-02-06T00:26:57.258Z,96796.00
2019-02-06T00:29:29.284Z,96798.00
2019-02-06T00:32:01.453Z,96806.00
2019-02-06T00:34:33.426Z,96808.00
2019-02-06T00:37:05.422Z,96808.00
2019-02-06T00:39:37.360Z,96810.00
2019-02-06T00:42:09.396Z,96807.00
2019-02-06T00:44:41.478Z,96808.00
2019-02-06T00:47:13.466Z,96797.00
2019-02-06T00:49:45.349Z,96800.00
2019-02-06T00:52:17.334Z,96806.00
2019-02-06T00:54:49.251Z,96803.00
2019-02-06T00:57:21.179Z,96801.00
2019-02-06T00:59:53.106Z,96807.00
2019-02-06T01:02:24.986Z,96803.00
2019-02-06T01:04:56.915Z,96809.00
2019-02-06T01:07:28.808Z,96811.00
2019-02-06T01:10:00.802Z,96810.00
2019-02-06T01:12:32.791Z,96813.00
2019-02-06T01:15:05.019Z,96803.00
2019-02-06T01:17:36.919Z,96797.00
2019-02-06T01:20:10.661Z,96806.00
2019-02-06T01:22:42.603Z,96807.00
2019-02-06T01:25:15.882Z,96808.00
2019-02-06T01:27:47.786Z,96801.00
2019-02-06T01:30:23.255Z,96803.00
2019-02-06T01:32:55.123Z,96810.00
2019-02-06T01:35:27.072Z,96811.00
2019-02-06T01:37:58.974Z,96811.00
2019-02-06T01:40:30.919Z,96811.00
2019-02-06T01:43:02.796Z,96812.00
2019-02-06T01:45:34.813Z,96815.00
2019-02-06T01:48:06.787Z,96808.00
2019-02-06T01:50:43.708Z,96802.00
2019-02-06T01:53:15.618Z,96799.00
2019-02-06T01:55:47.597Z,96800.00
2019-02-06T01:58:19.868Z,96785.00
2019-02-06T02:00:51.843Z,96785.00
2019-02-06T02:03:23.805Z,96790.00
2019-02-06T02:06:02.514Z,96797.00
2019-02-06T02:08:30.379Z,96805.00
2019-02-06T02:11:02.672Z,96803.00
2019-02-06T02:13:34.618Z,96794.00
2019-02-06T02:16:06.945Z,96801.00
2019-02-06T02:18:39.879Z,96794.00
2019-02-06T02:21:17.734Z,96799.00
2019-02-06T02:23:49.660Z,96783.00
2019-02-06T02:26:21.586Z,96784.00
2019-02-06T02:28:53.509Z,96787.00
2019-02-06T02:31:25.573Z,96795.00
2019-02-06T02:33:57.500Z,96779.00
2019-02-06T02:36:29.317Z,96791.00
2019-02-06T02:39:01.211Z,96781.00
2019-02-06T02:41:34.405Z,96784.00
2019-02-06T02:44:06.654Z,96779.00
2019-02-06T03:04:04.850Z,96774.00
2019-02-06T03:06:53.222Z,96783.00
2019-02-06T03:10:13.189Z,96789.00
2019-02-06T03:13:47.663Z,96764.00
2019-02-06T03:18:52.402Z,96770.00
2019-02-06T03:21:08.042Z,96758.00
2019-02-06T03:24:55.607Z,96749.00
2019-02-06T03:32:22.600Z,96742.00
2019-02-06T03:46:11.979Z,96749.00
2019-02-06T03:49:34.850Z,96736.00
2019-02-06T03:52:52.609Z,96742.00
2019-02-06T04:11:28.012Z,96746.00
2019-02-06T04:14:20.216Z,96747.00
2019-02-06T04:17:55.185Z,96748.00
2019-02-06T04:20:37.072Z,96750.00
2019-02-06T04:27:11.432Z,96746.00
2019-02-06T04:29:43.529Z,96747.00
2019-02-06T04:32:15.697Z,96744.00
2019-02-06T04:34:57.698Z,96745.00
2019-02-06T04:37:36.551Z,96749.00
2019-02-06T04:40:20.785Z,96753.00
2019-02-06T04:42:53.124Z,96751.00
2019-02-06T04:45:26.561Z,96728.00
2019-02-06T04:48:00.884Z,96744.00
2019-02-06T04:50:35.825Z,96744.00
2019-02-06T04:53:15.620Z,96740.00
2019-02-06T04:55:48.836Z,96743.00
2019-02-06T04:58:23.880Z,96740.00
2019-02-06T05:01:06.652Z,96741.00
2019-02-06T05:03:50.130Z,96736.00
2019-02-06T05:06:29.660Z,96745.00
2019-02-06T05:13:06.239Z,96754.00
2019-02-06T05:15:41.751Z,96747.00
2019-02-06T05:18:15.452Z,96756.00
2019-02-06T05:20:47.741Z,96752.00
2019-02-06T05:23:22.857Z,96757.00
2019-02-06T05:25:55.069Z,96756.00
2019-02-06T05:28:27.038Z,96752.00
2019-02-06T05:30:58.988Z,96748.00
2019-02-06T05:33:31.391Z,96751.00
2019-02-06T05:36:03.264Z,96747.00
2019-02-06T05:38:35.172Z,96746.00
2019-02-06T05:41:07.100Z,96741.00
2019-02-06T05:43:39.017Z,96750.00
2019-02-06T05:46:10.994Z,96761.00
2019-02-06T05:48:43.174Z,96749.00
2019-02-06T05:51:18.582Z,96757.00
2019-02-06T05:53:50.511Z,96746.00
2019-02-06T05:56:22.520Z,96752.00
2019-02-06T05:58:54.440Z,96761.00
2019-02-06T06:01:26.474Z,96755.00
2019-02-06T06:32:31.935Z,96757.00
2019-02-06T06:35:19.650Z,96761.00
2019-02-06T06:37:59.401Z,96761.00
2019-02-06T06:40:25.206Z,96761.00
2019-02-06T06:42:57.092Z,96761.00
2019-02-06T06:45:29.008Z,96762.00
2019-02-06T06:48:00.928Z,96755.00
2019-02-06T06:50:32.819Z,96769.00
2019-02-06T06:53:04.731Z,96765.00
2019-02-06T06:55:36.664Z,96771.00
2019-02-06T06:58:08.580Z,96773.00
2019-02-06T07:00:40.479Z,96773.00
2019-02-06T07:03:12.401Z,96780.00
2019-02-06T07:05:44.310Z,96784.00
2019-02-06T07:08:16.216Z,96769.00
2019-02-06T07:10:48.133Z,96784.00
2019-02-06T07:13:20.011Z,96789.00
2019-02-06T07:15:51.955Z,96797.00
2019-02-06T07:18:23.864Z,96787.00
2019-02-06T07:20:55.841Z,96779.00
2019-02-06T07:23:27.753Z,96786.00
2019-02-06T07:25:59.756Z,96790.00
2019-02-06T07:28:31.678Z,96786.00
2019-02-06T07:31:03.589Z,96781.00
2019-02-06T07:33:35.462Z,96781.00
2019-02-06T07:36:07.373Z,96781.00
2019-02-06T07:38:39.271Z,96772.00
2019-02-06T07:41:11.186Z,96776.00
2019-02-06T07:43:43.135Z,96774.00
2019-02-06T07:46:15.066Z,96768.00
2019-02-06T07:48:46.961Z,96774.00
2019-02-06T07:51:18.889Z,96776.00
2019-02-06T07:53:50.822Z,96775.00
2019-02-06T07:56:22.743Z,96779.00
2019-02-06T07:58:54.633Z,96773.00
2019-02-06T08:01:26.553Z,96775.00
2019-02-06T08:03:58.518Z,96775.00
2019-02-06T08:06:30.510Z,96782.00
2019-02-06T08:09:05.994Z,96778.00
2019-02-06T08:11:37.925Z,96770.00
2019-02-06T08:14:09.979Z,96777.00
2019-02-06T08:16:41.914Z,96775.00
2019-02-06T08:19:13.790Z,96782.00
2019-02-06T08:21:46.114Z,96771.00
2019-02-06T08:24:18.046Z,96780.00
2019-02-06T08:26:49.959Z,96784.00
2019-02-06T08:29:21.842Z,96773.00
2019-02-06T08:31:53.771Z,96768.00
2019-02-06T08:34:26.035Z,96776.00
2019-02-06T08:36:57.966Z,96772.00
2019-02-06T08:39:29.991Z,96772.00
2019-02-06T08:42:01.854Z,96771.00
2019-02-06T08:44:33.763Z,96770.00
2019-02-06T08:47:05.812Z,96763.00
2019-02-06T08:49:37.771Z,96762.00
2019-02-06T08:52:09.662Z,96749.00
2019-02-06T08:54:41.685Z,96759.00
2019-02-06T08:57:13.572Z,96761.00
2019-02-06T08:59:45.873Z,96756.00
2019-02-06T09:02:17.785Z,96754.00
2019-02-06T09:04:55.987Z,96747.00
2019-02-06T09:07:23.350Z,96750.00
2019-02-06T09:09:55.286Z,96755.00
2019-02-06T09:12:27.529Z,96749.00
2019-02-06T09:14:59.477Z,96752.00
2019-02-06T09:17:32.402Z,96745.00
2019-02-06T09:20:04.648Z,96750.00
2019-02-06T09:22:36.591Z,96748.00
2019-02-06T09:25:09.396Z,96753.00
2019-02-06T09:27:41.313Z,96750.00
2019-02-06T09:30:16.540Z,96744.00
2019-02-06T09:32:48.454Z,96744.00
2019-02-06T09:35:20.320Z,96732.00
2019-02-06T09:37:52.278Z,96733.00
2019-02-06T09:40:27.128Z,96725.00
2019-02-06T09:42:59.170Z,96723.00
2019-02-06T09:45:31.063Z,96724.00
2019-02-06T09:48:02.964Z,96720.00
2019-02-06T09:50:37.701Z,96714.00
2019-02-06T09:53:09.606Z,96711.00
2019-02-06T09:55:41.473Z,96710.00
2019-02-06T09:58:13.383Z,96708.00
2019-02-06T10:00:45.754Z,96708.00
2019-02-06T10:03:17.666Z,96701.00
2019-02-06T10:05:49.576Z,96701.00
2019-02-06T10:08:21.551Z,96706.00
2019-02-06T10:10:53.436Z,96699.00
2019-02-06T10:13:25.586Z,96699.00
2019-02-06T10:15:57.516Z,96695.00
2019-02-06T10:18:29.382Z,96704.00
2019-02-06T10:21:01.296Z,96692.00
2019-02-06T10:23:33.168Z,96694.00
2019-02-06T10:26:05.456Z,96684.00
2019-02-06T10:28:37.322Z,96688.00
2019-02-06T10:31:09.265Z,96687.00
2019-02-06T10:33:41.143Z,96692.00
2019-02-06T10:36:13.044Z,96682.00
2019-02-06T10:38:45.199Z,96694.00
2019-02-06T10:41:17.118Z,96673.00
2019-02-06T10:43:49.000Z,96680.00
2019-02-06T10:46:20.942Z,96672.00
2019-02-06T10:48:52.773Z,96660.00
2019-02-06T10:51:24.957Z,96653.00
2019-02-06T10:53:56.839Z,96653.00
2019-02-06T10:56:28.769Z,96647.00
2019-02-06T10:59:00.649Z,96638.00
2019-02-06T11:01:32.565Z,96641.00
2019-02-06T11:04:05.032Z,96631.00
2019-02-06T11:06:36.963Z,96632.00
2019-02-06T11:09:09.518Z,96626.00
2019-02-06T11:11:41.431Z,96619.00
2019-02-06T11:14:13.472Z,96621.00
2019-02-06T11:16:45.570Z,96604.00
2019-02-06T11:19:17.475Z,96602.00
2019-02-06T11:21:49.411Z,96600.00
2019-02-06T11:24:21.296Z,96605.00
2019-02-06T11:26:53.220Z,96600.00
2019-02-06T11:29:25.439Z,96593.00
2019-02-06T11:31:58.620Z,96607.00
2019-02-06T11:34:30.498Z,96601.00
2019-02-06T11:37:02.596Z,96601.00
2019-02-06T11:39:34.487Z,96597.00
2019-02-06T11:42:06.586Z,96591.00
2019-02-06T11:44:38.540Z,96594.00
2019-02-06T11:47:10.456Z,96590.00
2019-02-06T11:49:44.038Z,96575.00
2019-02-06T11:52:15.982Z,96579.00
2019-02-06T11:54:47.889Z,96578.00
2019-02-06T11:57:19.719Z,96581.00
2019-02-06T11:59:53.124Z,96583.00
2019-02-06T12:02:36.745Z,96579.00
2019-02-06T12:04:59.583Z,96566.00
2019-02-06T12:07:31.508Z,96562.00
2019-02-06T12:10:10.064Z,96565.00
2019-02-06T12:12:37.081Z,96570.00
2019-02-06T12:15:14.740Z,96559.00
2019-02-06T12:17:46.939Z,96560.00
2019-02-06T12:20:24.431Z,96548.00
2019-02-06T12:22:56.333Z,96551.00
2019-02-06T12:25:28.267Z,96544.00
2019-02-06T12:28:00.140Z,96555.00
2019-02-06T12:30:33.505Z,96551.00
2019-02-06T12:33:05.619Z,96539.00
2019-02-06T12:35:37.547Z,96539.00
2019-02-06T12:38:09.437Z,96537.00
2019-02-06T12:40:41.407Z,96538.00
2019-02-06T12:43:13.297Z,96525.00
2019-02-06T12:45:45.401Z,96539.00
2019-02-06T12:48:17.274Z,96530.00
2019-02-06T12:50:49.257Z,96532.00
2019-02-06T12:53:21.143Z,96528.00
2019-02-06T12:55:53.048Z,96537.00
2019-02-06T12:58:26.150Z,96531.00
2019-02-06T13:00:58.267Z,96535.00
2019-02-06T13:03:30.185Z,96519.00
2019-02-06T13:06:02.061Z,96518.00
2019-02-06T13:08:33.994Z,96518.00
2019-02-06T13:11:06.009Z,96504.00
2019-02-06T13:13:37.939Z,96502.00
2019-02-06T13:16:09.901Z,96492.00
2019-02-06T13:18:41.801Z,96491.00
2019-02-06T13:21:13.745Z,96488.00
2019-02-06T13:23:45.618Z,96486.00
2019-02-06T13:26:17.539Z,96490.00
2019-02-06T13:28:49.483Z,96483.00
2019-02-06T13:31:21.370Z,96486.00
2019-02-06T13:33:53.318Z,96487.00
2019-02-06T13:36:25.206Z,96484.00
2019-02-06T13:38:57.191Z,96477.00
2019-02-06T13:41:29.098Z,96470.00
2019-02-06T13:44:01.065Z,96471.00
2019-02-06T13:46:32.961Z,96464.00
2019-02-06T13:49:04.971Z,96463.00
2019-02-06T13:51:37.547Z,96461.00
2019-02-06T13:54:09.487Z,96463.00
2019-02-06T13:56:41.593Z,96451.00
2019-02-06T13:59:13.474Z,96458.00
2019-02-06T14:01:45.394Z,96449.00
2019-02-06T14:04:19.170Z,96444.00
2019-02-06T14:06:51.127Z,96429.00
2019-02-06T14:09:26.663Z,96430.00
2019-02-06T14:11:56.634Z,96428.00
2019-02-06T14:14:32.035Z,96436.00
2019-02-06T14:17:03.966Z,96434.00
2019-02-06T14:19:35.850Z,96421.00
2019-02-06T14:22:09.831Z,96422.00
2019-02-06T14:25:22.548Z,96424.00
2019-02-06T14:28:24.855Z,96409.00
2019-02-06T14:31:46.893Z,96410.00
2019-02-06T14:35:25.298Z,96414.00
2019-02-06T14:38:55.215Z,96414.00
2019-02-06T14:41:54.514Z,96418.00
2019-02-06T14:44:57.923Z,96416.00
2019-02-06T14:48:13.905Z,96417.00
2019-02-06T14:52:15.108Z,96410.00
2019-02-06T14:55:02.209Z,96414.00
2019-02-06T14:58:06.916Z,96410.00
2019-02-06T15:01:22.896Z,96405.00
2019-02-06T15:04:41.017Z,96403.00
2019-02-06T15:08:03.757Z,96405.00
2019-02-06T15:11:32.283Z,96405.00
2019-02-06T15:15:06.951Z,96406.00
2019-02-06T15:18:27.003Z,96414.00
2019-02-06T15:21:31.353Z,96409.00
2019-02-06T15:25:32.911Z,96410.00
2019-02-06T15:28:53.476Z,96401.00
2019-02-06T15:32:39.881Z,96390.00
2019-02-06T15:36:01.675Z,96411.00
2019-02-06T15:39:46.579Z,96403.00
2019-02-06T15:43:15.844Z,96406.00
2019-02-06T15:46:55.958Z,96398.00
2019-02-06T15:50:13.283Z,96395.00
2019-02-06T15:53:09.035Z,96391.00
2019-02-06T15:56:29.119Z,96392.00
2019-02-06T16:00:39.306Z,96394.00
2019-02-06T16:04:34.214Z,96385.00
2019-02-06T16:08:24.185Z,96389.00
2019-02-06T16:11:42.395Z,96387.00
2019-02-06T16:14:45.344Z,96392.00
2019-02-06T16:18:07.914Z,96397.00
2019-02-06T16:21:31.930Z,96387.00
2019-02-06T16:24:50.481Z,96388.00
2019-02-06T16:28:16.031Z,96377.00
2019-02-06T16:31:35.092Z,96385.00
2019-02-06T16:35:21.813Z,96373.00
2019-02-06T16:38:42.406Z,96389.00
2019-02-06T16:41:56.713Z,96388.00
2019-02-06T16:45:06.087Z,96380.00
2019-02-06T16:48:38.385Z,96364.00
2019-02-06T16:51:29.688Z,96380.00
2019-02-06T16:54:57.650Z,96371.00
2019-02-06T16:58:24.522Z,96379.00
2019-02-06T17:02:08.795Z,96365.00
2019-02-06T17:05:12.796Z,96379.00
2019-02-06T17:09:01.435Z,96374.00
2019-02-06T17:12:34.225Z,96365.00
2019-02-06T17:15:48.766Z,96366.00
2019-02-06T17:19:07.068Z,96357.00
2019-02-06T17:22:34.926Z,96345.00
2019-02-06T17:26:09.945Z,96354.00
2019-02-06T17:30:05.867Z,96363.00
2019-02-06T17:33:22.170Z,96359.00
2019-02-06T17:37:15.313Z,96363.00
2019-02-06T17:40:47.630Z,96351.00
2019-02-06T17:44:24.158Z,96344.00
2019-02-06T17:47:37.486Z,96354.00
2019-02-06T17:50:48.104Z,96341.00
2019-02-06T17:53:44.192Z,96338.00
2019-02-06T17:56:16.159Z,96347.00
2019-02-06T17:58:48.315Z,96344.00
2019-02-06T18:01:55.208Z,96342.00
2019-02-06T18:04:39.041Z,96338.00
2019-02-06T18:07:11.713Z,96344.00
2019-02-06T18:09:43.903Z,96342.00
2019-02-06T18:12:25.962Z,96348.00
2019-02-06T18:14:50.019Z,96338.00
2019-02-06T18:17:22.490Z,96337.00
2019-02-06T18:19:55.546Z,96332.00
2019-02-06T18:22:27.783Z,96328.00
2019-02-06T18:24:59.812Z,96328.00
2019-02-06T18:27:31.846Z,96320.00
2019-02-06T18:30:05.749Z,96324.00
2019-02-06T18:32:38.034Z,96323.00
2019-02-06T18:35:10.577Z,96317.00
2019-02-06T18:37:43.378Z,96315.00
2019-02-06T18:40:15.911Z,96314.00
2019-02-06T18:42:48.398Z,96313.00
2019-02-06T18:45:20.753Z,96310.00
2019-02-06T18:47:57.278Z,96305.00
2019-02-06T18:50:31.108Z,96310.00
2019-02-06T18:53:03.520Z,96304.00
2019-02-06T18:55:35.892Z,96303.00
2019-02-06T18:58:08.971Z,96298.00
2019-02-06T19:00:41.054Z,96292.00
2019-02-06T19:03:21.533Z,96292.00
2019-02-06T19:05:53.516Z,96293.00
2019-02-06T19:08:25.432Z,96289.00
2019-02-06T19:10:57.497Z,96285.00
2019-02-06T19:13:29.399Z,96292.00
2019-02-06T19:16:01.571Z,96275.00
2019-02-06T19:18:33.493Z,96272.00
2019-02-06T19:21:05.478Z,96273.00
2019-02-06T19:23:37.891Z,96276.00
2019-02-06T19:26:10.639Z,96276.00
2019-02-06T19:28:42.548Z,96259.00
2019-02-06T19:31:16.034Z,96262.00
2019-02-06T19:33:48.879Z,96264.00
2019-02-06T19:36:20.836Z,96255.00
2019-02-06T19:38:52.747Z,96261.00
2019-02-06T19:41:24.719Z,96262.00
2019-02-06T19:43:56.791Z,96259.00
2019-02-06T19:46:29.101Z,96255.00
2019-02-06T19:49:01.898Z,96246.00
2019-02-06T19:51:34.125Z,96241.00
2019-02-06T19:54:06.126Z,96241.00
2019-02-06T19:56:38.169Z,96250.00
2019-02-06T19:59:10.093Z,96239.00
2019-02-06T20:01:42.028Z,96232.00
2019-02-06T20:04:13.908Z,96231.00
2019-02-06T20:06:45.888Z,96227.00
2019-02-06T20:09:17.804Z,96219.00
2019-02-06T20:11:49.731Z,96222.00
2019-02-06T20:14:21.659Z,96217.00
2019-02-06T20:16:53.616Z,96213.00
2019-02-06T20:19:25.806Z,96212.00
2019-02-06T20:21:57.820Z,96218.00
2019-02-06T20:24:29.744Z,96217.00
2019-02-06T20:27:01.871Z,96211.00
2019-02-06T20:29:33.784Z,96219.00
2019-02-06T20:32:06.310Z,96219.00
2019-02-06T20:34:38.263Z,96211.00
2019-02-06T20:37:10.216Z,96209.00
2019-02-06T20:39:42.274Z,96207.00
2019-02-06T20:42:14.175Z,96205.00
2019-02-06T20:44:46.169Z,96211.00
2019-02-06T20:47:18.297Z,96219.00
2019-02-06T20:49:50.285Z,96206.00
2019-02-06T20:52:23.671Z,96196.00
2019-02-06T20:54:55.727Z,96198.00
2019-02-06T20:57:27.637Z,96208.00
2019-02-06T21:00:00.007Z,96185.00
2019-02-06T21:02:31.971Z,96192.00
2019-02-06T21:05:04.287Z,96183.00
2019-02-06T21:07:36.200Z,96183.00
2019-02-06T21:10:13.751Z,96174.00
2019-02-06T21:12:45.677Z,96175.00
2019-02-06T21:15:17.613Z,96165.00
2019-02-06T21:17:49.636Z,96165.00
2019-02-06T21:20:23.677Z,96166.00
2019-02-06T21:22:55.798Z,96160.00
2019-02-06T21:25:27.711Z,96154.00
2019-02-06T21:28:00.042Z,96163.00
2019-02-06T21:30:34.742Z,96158.00
2019-02-06T21:33:06.856Z,96141.00
2019-02-06T21:35:38.787Z,96145.00
2019-02-06T21:38:10.725Z,96143.00
2019-02-06T21:40:42.636Z,96130.00
2019-02-06T21:43:14.632Z,96139.00
2019-02-06T21:45:52.554Z,95274.00
2019-02-06T21:48:24.988Z,96131.00
2019-02-06T21:50:57.147Z,96111.00
2019-02-06T21:53:29.101Z,96114.00
2019-02-06T21:56:00.994Z,96121.00
2019-02-06T21:58:33.028Z,96105.00
2019-02-06T22:01:05.019Z,96103.00
2019-02-06T22:03:36.951Z,96109.00
2019-02-06T22:06:08.926Z,96108.00
2019-02-06T22:08:40.922Z,96099.00
2019-02-06T22:11:12.837Z,96101.00
2019-02-06T22:13:54.696Z,96095.00
2019-02-06T22:16:18.636Z,96099.00
2019-02-06T22:18:50.672Z,96091.00
2019-02-06T22:21:22.596Z,96092.00
2019-02-06T22:23:54.988Z,96088.00
2019-02-06T22:26:26.943Z,96091.00
2019-02-06T22:28:58.882Z,96074.00
2019-02-06T22:31:30.885Z,96081.00
2019-02-06T22:34:02.882Z,96088.00
2019-02-06T22:36:35.186Z,96090.00
2019-02-06T22:39:12.124Z,96087.00
2019-02-06T22:41:44.041Z,96095.00
2019-02-06T22:44:15.958Z,96084.00
2019-02-06T22:46:47.854Z,96093.00
2019-02-06T22:49:19.775Z,96099.00
2019-02-06T22:51:51.667Z,96102.00
2019-02-06T22:54:23.602Z,96104.00
2019-02-06T22:56:55.609Z,96096.00
2019-02-06T22:59:27.402Z,96096.00
2019-02-06T23:02:00.334Z,96095.00
2019-02-06T23:04:32.259Z,96100.00
2019-02-06T23:07:04.190Z,96098.00
2019-02-06T23:09:37.804Z,96094.00
2019-02-06T23:12:10.070Z,96101.00
2019-02-06T23:14:42.067Z,96091.00
2019-02-06T23:17:14.130Z,96087.00
2019-02-06T23:19:46.056Z,96092.00
